sensor_id;sensor_type;location;lat;lon;timestamp;P1;durP1;ratioP1;P2;durP2;ratioP2
70667;SDS011;58242;51.250;-1.118;2022-08-11T00:01:08;3.08;;;2.08;;
70667;SDS011;58242;51.250;-1.118;2022-08-11T00:03:41;2.03;;;1.92;;
70667;SDS011;58242;51.250;-1.118;2022-08-11T00:06:09;4.45;;;2.10;;
70667;SDS011;58242;51.250;-1.118;2022-08-11T00:08:38;1.90;;;1.80;;
70667;SDS011;58242;51.250;-1.118;2022-08-11T00:11:07;2.80;;;2.22;;
70667;SDS011;58242;51.250;-1.118;2022-08-11T00:13:38;3.55;;;2.25;;
70667;SDS011;58242;51.250;-1.118;2022-08-11T00:18:49;2.10;;;2.00;;
70667;SDS011;58242;51.250;-1.118;2022-08-11T00:21:19;2.28;;;2.05;;
70667;SDS011;58242;51.250;-1.118;2022-08-11T00:23:46;3.08;;;2.15;;
70667;SDS011;58242;51.250;-1.118;2022-08-11T00:26:22;2.15;;;2.00;;
70667;SDS011;58242;51.250;-1.118;2022-08-11T00:28:50;3.00;;;2.42;;
70667;SDS011;58242;51.250;-1.118;2022-08-11T00:31:21;2.58;;;2.00;;
70667;SDS011;58242;51.250;-1.118;2022-08-11T00:33:55;3.00;;;2.55;;
70667;SDS011;58242;51.250;-1.118;2022-08-11T00:36:27;2.20;;;2.00;;
70667;SDS011;58242;51.250;-1.118;2022-08-11T00:41:33;2.38;;;2.20;;
70667;SDS011;58242;51.250;-1.118;2022-08-11T00:46:58;2.33;;;2.22;;
70667;SDS011;58242;51.250;-1.118;2022-08-11T01:18:58;2.75;;;2.20;;
70667;SDS011;58242;51.250;-1.118;2022-08-11T01:27:09;2.45;;;2.25;;
70667;SDS011;58242;51.250;-1.118;2022-08-11T01:48:02;2.30;;;2.10;;
70667;SDS011;58242;51.250;-1.118;2022-08-11T01:55:58;2.00;;;1.90;;
70667;SDS011;58242;51.250;-1.118;2022-08-11T02:11:57;3.95;;;2.28;;
70667;SDS011;58242;51.250;-1.118;2022-08-11T02:19:56;2.30;;;2.10;;
70667;SDS011;58242;51.250;-1.118;2022-08-11T02:31:01;2.40;;;2.20;;
70667;SDS011;58242;51.250;-1.118;2022-08-11T02:33:54;2.30;;;2.20;;
70667;SDS011;58242;51.250;-1.118;2022-08-11T02:36:44;2.92;;;2.65;;
70667;SDS011;58242;51.250;-1.118;2022-08-11T02:39:19;2.88;;;2.45;;
70667;SDS011;58242;51.250;-1.118;2022-08-11T02:41:52;3.08;;;2.50;;
70667;SDS011;58242;51.250;-1.118;2022-08-11T02:45:04;2.30;;;2.10;;
70667;SDS011;58242;51.250;-1.118;2022-08-11T03:10:47;3.17;;;2.40;;
70667;SDS011;58242;51.250;-1.118;2022-08-11T03:17:05;2.35;;;2.22;;
70667;SDS011;58242;51.250;-1.118;2022-08-11T03:25:54;2.20;;;2.10;;
70667;SDS011;58242;51.250;-1.118;2022-08-11T03:28:41;2.60;;;2.17;;
70667;SDS011;58242;51.250;-1.118;2022-08-11T03:31:36;1.92;;;1.83;;
70667;SDS011;58242;51.250;-1.118;2022-08-11T03:34:08;2.50;;;2.30;;
70667;SDS011;58242;51.250;-1.118;2022-08-11T03:47:33;3.53;;;2.20;;
70667;SDS011;58242;51.250;-1.118;2022-08-11T03:59:16;2.40;;;2.30;;
70667;SDS011;58242;51.250;-1.118;2022-08-11T04:33:52;2.95;;;2.55;;
70667;SDS011;58242;51.250;-1.118;2022-08-11T04:36:40;3.58;;;2.97;;
70667;SDS011;58242;51.250;-1.118;2022-08-11T04:42:13;2.72;;;2.53;;
70667;SDS011;58242;51.250;-1.118;2022-08-11T04:45:24;2.35;;;2.17;;
70667;SDS011;58242;51.250;-1.118;2022-08-11T04:57:36;2.88;;;2.65;;
70667;SDS011;58242;51.250;-1.118;2022-08-11T05:00:22;2.58;;;2.38;;
70667;SDS011;58242;51.250;-1.118;2022-08-11T05:15:15;2.80;;;2.60;;
70667;SDS011;58242;51.250;-1.118;2022-08-11T05:21:24;2.40;;;2.25;;
70667;SDS011;58242;51.250;-1.118;2022-08-11T05:27:19;2.60;;;2.45;;
70667;SDS011;58242;51.250;-1.118;2022-08-11T05:30:10;2.92;;;2.55;;
70667;SDS011;58242;51.250;-1.118;2022-08-11T05:33:02;2.20;;;2.10;;
70667;SDS011;58242;51.250;-1.118;2022-08-11T05:35:54;2.13;;;2.03;;
70667;SDS011;58242;51.250;-1.118;2022-08-11T05:38:30;2.42;;;2.33;;
70667;SDS011;58242;51.250;-1.118;2022-08-11T05:41:18;2.35;;;2.15;;
70667;SDS011;58242;51.250;-1.118;2022-08-11T05:44:04;2.53;;;2.33;;
70667;SDS011;58242;51.250;-1.118;2022-08-11T05:46:48;3.40;;;2.80;;
70667;SDS011;58242;51.250;-1.118;2022-08-11T05:49:33;3.30;;;2.90;;
70667;SDS011;58242;51.250;-1.118;2022-08-11T05:52:23;2.15;;;2.03;;
70667;SDS011;58242;51.250;-1.118;2022-08-11T05:57:58;2.75;;;2.55;;
70667;SDS011;58242;51.250;-1.118;2022-08-11T06:00:27;3.03;;;2.72;;
70667;SDS011;58242;51.250;-1.118;2022-08-11T06:02:55;3.22;;;2.92;;
70667;SDS011;58242;51.250;-1.118;2022-08-11T06:05:35;3.13;;;2.92;;
70667;SDS011;58242;51.250;-1.118;2022-08-11T06:08:02;3.35;;;3.00;;
70667;SDS011;58242;51.250;-1.118;2022-08-11T06:10:30;3.55;;;3.28;;
70667;SDS011;58242;51.250;-1.118;2022-08-11T06:12:57;2.93;;;2.70;;
70667;SDS011;58242;51.250;-1.118;2022-08-11T06:15:25;2.90;;;2.60;;
70667;SDS011;58242;51.250;-1.118;2022-08-11T06:17:51;2.80;;;2.60;;
70667;SDS011;58242;51.250;-1.118;2022-08-11T06:20:18;3.40;;;3.10;;
70667;SDS011;58242;51.250;-1.118;2022-08-11T06:22:46;2.80;;;2.60;;
70667;SDS011;58242;51.250;-1.118;2022-08-11T06:25:19;6.00;;;3.10;;
70667;SDS011;58242;51.250;-1.118;2022-08-11T06:27:45;3.50;;;3.20;;
70667;SDS011;58242;51.250;-1.118;2022-08-11T06:30:21;3.58;;;2.90;;
70667;SDS011;58242;51.250;-1.118;2022-08-11T06:32:59;3.35;;;3.05;;
70667;SDS011;58242;51.250;-1.118;2022-08-11T06:35:32;3.67;;;3.40;;
70667;SDS011;58242;51.250;-1.118;2022-08-11T06:41:52;3.20;;;3.00;;
70667;SDS011;58242;51.250;-1.118;2022-08-11T06:46:38;4.00;;;2.92;;
70667;SDS011;58242;51.250;-1.118;2022-08-11T06:49:06;4.82;;;2.90;;
70667;SDS011;58242;51.250;-1.118;2022-08-11T06:51:53;2.90;;;2.70;;
70667;SDS011;58242;51.250;-1.118;2022-08-11T06:54:20;3.17;;;2.90;;
70667;SDS011;58242;51.250;-1.118;2022-08-11T06:56:47;3.05;;;2.72;;
70667;SDS011;58242;51.250;-1.118;2022-08-11T06:59:32;3.50;;;2.90;;
70667;SDS011;58242;51.250;-1.118;2022-08-11T07:02:19;2.50;;;2.30;;
70667;SDS011;58242;51.250;-1.118;2022-08-11T07:05:00;3.35;;;3.10;;
70667;SDS011;58242;51.250;-1.118;2022-08-11T07:14:26;2.90;;;2.70;;
70667;SDS011;58242;51.250;-1.118;2022-08-11T07:17:13;2.55;;;2.35;;
70667;SDS011;58242;51.250;-1.118;2022-08-11T07:19:42;2.38;;;2.28;;
70667;SDS011;58242;51.250;-1.118;2022-08-11T07:22:29;3.00;;;2.63;;
70667;SDS011;58242;51.250;-1.118;2022-08-11T07:25:35;2.70;;;2.50;;
70667;SDS011;58242;51.250;-1.118;2022-08-11T07:28:23;2.58;;;2.38;;
70667;SDS011;58242;51.250;-1.118;2022-08-11T07:31:20;3.65;;;2.50;;
70667;SDS011;58242;51.250;-1.118;2022-08-11T07:34:54;2.63;;;2.47;;
70667;SDS011;58242;51.250;-1.118;2022-08-11T07:36:53;3.15;;;2.85;;
70667;SDS011;58242;51.250;-1.118;2022-08-11T07:41:50;2.53;;;2.40;;
70667;SDS011;58242;51.250;-1.118;2022-08-11T07:44:17;3.50;;;2.95;;
70667;SDS011;58242;51.250;-1.118;2022-08-11T07:46:47;4.45;;;3.63;;
70667;SDS011;58242;51.250;-1.118;2022-08-11T07:49:35;5.35;;;3.00;;
70667;SDS011;58242;51.250;-1.118;2022-08-11T07:52:21;6.80;;;3.50;;
70667;SDS011;58242;51.250;-1.118;2022-08-11T07:54:55;7.75;;;3.40;;
70667;SDS011;58242;51.250;-1.118;2022-08-11T07:57:23;2.97;;;2.75;;
70667;SDS011;58242;51.250;-1.118;2022-08-11T08:00:09;7.85;;;3.20;;
70667;SDS011;58242;51.250;-1.118;2022-08-11T08:02:53;2.58;;;2.30;;
70667;SDS011;58242;51.250;-1.118;2022-08-11T08:05:37;6.07;;;2.50;;
70667;SDS011;58242;51.250;-1.118;2022-08-11T08:08:22;2.55;;;2.38;;
70667;SDS011;58242;51.250;-1.118;2022-08-11T08:11:06;12.13;;;3.92;;
70667;SDS011;58242;51.250;-1.118;2022-08-11T08:13:52;4.90;;;2.65;;
70667;SDS011;58242;51.250;-1.118;2022-08-11T08:16:36;2.38;;;2.20;;
70667;SDS011;58242;51.250;-1.118;2022-08-11T08:19:21;8.68;;;2.28;;
70667;SDS011;58242;51.250;-1.118;2022-08-11T08:21:47;2.95;;;2.63;;
70667;SDS011;58242;51.250;-1.118;2022-08-11T08:24:13;3.50;;;2.92;;
70667;SDS011;58242;51.250;-1.118;2022-08-11T08:26:40;2.92;;;2.70;;
70667;SDS011;58242;51.250;-1.118;2022-08-11T08:29:23;5.60;;;2.50;;
70667;SDS011;58242;51.250;-1.118;2022-08-11T08:32:09;4.10;;;2.55;;
70667;SDS011;58242;51.250;-1.118;2022-08-11T08:34:36;3.05;;;2.35;;
70667;SDS011;58242;51.250;-1.118;2022-08-11T08:37:04;3.80;;;2.22;;
70667;SDS011;58242;51.250;-1.118;2022-08-11T08:39:31;2.58;;;2.20;;
70667;SDS011;58242;51.250;-1.118;2022-08-11T08:42:02;2.10;;;1.88;;
70667;SDS011;58242;51.250;-1.118;2022-08-11T08:44:34;2.50;;;2.30;;
70667;SDS011;58242;51.250;-1.118;2022-08-11T08:47:03;3.10;;;2.45;;
70667;SDS011;58242;51.250;-1.118;2022-08-11T08:49:34;2.67;;;2.03;;
70667;SDS011;58242;51.250;-1.118;2022-08-11T08:52:03;3.00;;;2.15;;
70667;SDS011;58242;51.250;-1.118;2022-08-11T08:54:34;6.82;;;2.65;;
70667;SDS011;58242;51.250;-1.118;2022-08-11T08:57:02;2.22;;;1.90;;
70667;SDS011;58242;51.250;-1.118;2022-08-11T08:59:30;7.63;;;2.30;;
70667;SDS011;58242;51.250;-1.118;2022-08-11T09:02:01;3.15;;;2.13;;
70667;SDS011;58242;51.250;-1.118;2022-08-11T09:04:29;3.10;;;1.63;;
70667;SDS011;58242;51.250;-1.118;2022-08-11T09:06:57;2.78;;;2.10;;
70667;SDS011;58242;51.250;-1.118;2022-08-11T09:09:23;3.78;;;2.35;;
70667;SDS011;58242;51.250;-1.118;2022-08-11T09:11:50;1.63;;;1.52;;
70667;SDS011;58242;51.250;-1.118;2022-08-11T09:14:23;3.50;;;2.17;;
70667;SDS011;58242;51.250;-1.118;2022-08-11T09:17:19;2.55;;;1.42;;
70667;SDS011;58242;51.250;-1.118;2022-08-11T09:19:46;1.95;;;1.60;;
70667;SDS011;58242;51.250;-1.118;2022-08-11T09:22:22;4.47;;;2.00;;
70667;SDS011;58242;51.250;-1.118;2022-08-11T09:25:06;2.17;;;1.90;;
70667;SDS011;58242;51.250;-1.118;2022-08-11T09:27:52;3.35;;;1.90;;
70667;SDS011;58242;51.250;-1.118;2022-08-11T09:30:20;2.10;;;1.60;;
70667;SDS011;58242;51.250;-1.118;2022-08-11T09:32:51;1.55;;;1.45;;
70667;SDS011;58242;51.250;-1.118;2022-08-11T09:35:22;2.40;;;1.75;;
70667;SDS011;58242;51.250;-1.118;2022-08-11T09:37:50;1.70;;;1.60;;
70667;SDS011;58242;51.250;-1.118;2022-08-11T09:40:35;3.17;;;1.70;;
70667;SDS011;58242;51.250;-1.118;2022-08-11T09:43:04;2.08;;;1.83;;
70667;SDS011;58242;51.250;-1.118;2022-08-11T09:45:52;4.85;;;1.92;;
70667;SDS011;58242;51.250;-1.118;2022-08-11T09:48:20;7.30;;;2.20;;
70667;SDS011;58242;51.250;-1.118;2022-08-11T09:50:48;2.50;;;1.80;;
70667;SDS011;58242;51.250;-1.118;2022-08-11T09:53:17;2.03;;;1.40;;
70667;SDS011;58242;51.250;-1.118;2022-08-11T09:55:44;2.88;;;1.52;;
70667;SDS011;58242;51.250;-1.118;2022-08-11T09:58:10;2.17;;;1.92;;
70667;SDS011;58242;51.250;-1.118;2022-08-11T10:00:37;1.80;;;1.70;;
70667;SDS011;58242;51.250;-1.118;2022-08-11T10:03:25;2.00;;;1.90;;
70667;SDS011;58242;51.250;-1.118;2022-08-11T10:05:57;2.22;;;1.73;;
70667;SDS011;58242;51.250;-1.118;2022-08-11T10:08:43;2.47;;;1.83;;
70667;SDS011;58242;51.250;-1.118;2022-08-11T10:11:11;3.92;;;2.00;;
70667;SDS011;58242;51.250;-1.118;2022-08-11T10:16:30;3.22;;;1.42;;
70667;SDS011;58242;51.250;-1.118;2022-08-11T10:19:00;2.15;;;1.50;;
70667;SDS011;58242;51.250;-1.118;2022-08-11T10:21:36;1.85;;;1.75;;
70667;SDS011;58242;51.250;-1.118;2022-08-11T10:24:05;1.73;;;1.63;;
70667;SDS011;58242;51.250;-1.118;2022-08-11T10:26:51;2.95;;;1.40;;
70667;SDS011;58242;51.250;-1.118;2022-08-11T10:29:31;4.95;;;1.63;;
70667;SDS011;58242;51.250;-1.118;2022-08-11T10:32:20;4.18;;;1.52;;
70667;SDS011;58242;51.250;-1.118;2022-08-11T10:35:06;2.78;;;1.83;;
70667;SDS011;58242;51.250;-1.118;2022-08-11T10:37:33;1.50;;;1.40;;
70667;SDS011;58242;51.250;-1.118;2022-08-11T10:42:27;1.95;;;1.45;;
70667;SDS011;58242;51.250;-1.118;2022-08-11T10:45:11;2.17;;;1.40;;
70667;SDS011;58242;51.250;-1.118;2022-08-11T10:47:57;1.50;;;1.40;;
70667;SDS011;58242;51.250;-1.118;2022-08-11T10:50:23;2.35;;;1.58;;
70667;SDS011;58242;51.250;-1.118;2022-08-11T10:53:08;4.40;;;2.00;;
70667;SDS011;58242;51.250;-1.118;2022-08-11T10:55:52;1.70;;;1.50;;
70667;SDS011;58242;51.250;-1.118;2022-08-11T10:58:37;2.08;;;1.77;;
70667;SDS011;58242;51.250;-1.118;2022-08-11T11:01:31;2.45;;;1.67;;
70667;SDS011;58242;51.250;-1.118;2022-08-11T11:04:11;1.90;;;1.52;;
70667;SDS011;58242;51.250;-1.118;2022-08-11T11:09:39;1.95;;;1.35;;
70667;SDS011;58242;51.250;-1.118;2022-08-11T11:15:18;2.05;;;1.80;;
70667;SDS011;58242;51.250;-1.118;2022-08-11T11:18:11;1.97;;;1.77;;
70667;SDS011;58242;51.250;-1.118;2022-08-11T11:20:47;3.35;;;1.90;;
70667;SDS011;58242;51.250;-1.118;2022-08-11T11:23:18;1.83;;;1.63;;
70667;SDS011;58242;51.250;-1.118;2022-08-11T11:31:33;2.20;;;1.58;;
70667;SDS011;58242;51.250;-1.118;2022-08-11T11:34:09;1.80;;;1.70;;
70667;SDS011;58242;51.250;-1.118;2022-08-11T11:39:21;2.33;;;1.85;;
70667;SDS011;58242;51.250;-1.118;2022-08-11T11:41:50;2.75;;;1.80;;
70667;SDS011;58242;51.250;-1.118;2022-08-11T11:44:17;3.50;;;1.80;;
70667;SDS011;58242;51.250;-1.118;2022-08-11T11:46:44;1.70;;;1.60;;
70667;SDS011;58242;51.250;-1.118;2022-08-11T11:49:11;2.53;;;2.33;;
70667;SDS011;58242;51.250;-1.118;2022-08-11T11:51:38;4.60;;;1.92;;
70667;SDS011;58242;51.250;-1.118;2022-08-11T11:54:03;2.05;;;1.95;;
70667;SDS011;58242;51.250;-1.118;2022-08-11T11:56:30;3.45;;;2.10;;
70667;SDS011;58242;51.250;-1.118;2022-08-11T11:58:55;2.47;;;2.28;;
70667;SDS011;58242;51.250;-1.118;2022-08-11T12:01:40;2.00;;;1.90;;
70667;SDS011;58242;51.250;-1.118;2022-08-11T12:04:07;2.35;;;2.15;;
70667;SDS011;58242;51.250;-1.118;2022-08-11T12:06:35;2.88;;;2.00;;
70667;SDS011;58242;51.250;-1.118;2022-08-11T12:09:01;2.45;;;2.20;;
70667;SDS011;58242;51.250;-1.118;2022-08-11T12:11:27;1.92;;;1.48;;
70667;SDS011;58242;51.250;-1.118;2022-08-11T12:14:12;2.30;;;1.73;;
70667;SDS011;58242;51.250;-1.118;2022-08-11T12:16:42;2.00;;;1.80;;
70667;SDS011;58242;51.250;-1.118;2022-08-11T12:19:18;2.05;;;1.95;;
70667;SDS011;58242;51.250;-1.118;2022-08-11T12:21:48;1.67;;;1.58;;
70667;SDS011;58242;51.250;-1.118;2022-08-11T12:24:33;1.70;;;1.58;;
70667;SDS011;58242;51.250;-1.118;2022-08-11T12:27:19;1.75;;;1.63;;
70667;SDS011;58242;51.250;-1.118;2022-08-11T12:29:46;1.80;;;1.70;;
70667;SDS011;58242;51.250;-1.118;2022-08-11T12:32:13;1.77;;;1.67;;
70667;SDS011;58242;51.250;-1.118;2022-08-11T12:34:39;2.10;;;1.63;;
70667;SDS011;58242;51.250;-1.118;2022-08-11T12:37:04;1.98;;;1.67;;
70667;SDS011;58242;51.250;-1.118;2022-08-11T12:39:36;1.70;;;1.60;;
70667;SDS011;58242;51.250;-1.118;2022-08-11T12:42:21;2.23;;;2.00;;
70667;SDS011;58242;51.250;-1.118;2022-08-11T12:45:15;1.95;;;1.75;;
70667;SDS011;58242;51.250;-1.118;2022-08-11T12:48:16;1.45;;;1.30;;
70667;SDS011;58242;51.250;-1.118;2022-08-11T12:51:02;2.10;;;1.70;;
70667;SDS011;58242;51.250;-1.118;2022-08-11T12:56:49;1.88;;;1.73;;
70667;SDS011;58242;51.250;-1.118;2022-08-11T12:59:42;1.50;;;1.40;;
70667;SDS011;58242;51.250;-1.118;2022-08-11T13:02:26;1.90;;;1.80;;
70667;SDS011;58242;51.250;-1.118;2022-08-11T13:05:11;2.25;;;1.83;;
70667;SDS011;58242;51.250;-1.118;2022-08-11T13:07:38;2.63;;;2.00;;
70667;SDS011;58242;51.250;-1.118;2022-08-11T13:10:07;1.80;;;1.70;;
70667;SDS011;58242;51.250;-1.118;2022-08-11T13:12:34;1.63;;;1.52;;
70667;SDS011;58242;51.250;-1.118;2022-08-11T13:15:19;1.83;;;1.70;;
70667;SDS011;58242;51.250;-1.118;2022-08-11T13:17:45;2.92;;;1.48;;
70667;SDS011;58242;51.250;-1.118;2022-08-11T13:20:14;1.40;;;1.30;;
70667;SDS011;58242;51.250;-1.118;2022-08-11T13:22:44;1.70;;;1.60;;
70667;SDS011;58242;51.250;-1.118;2022-08-11T13:25:12;1.55;;;1.40;;
70667;SDS011;58242;51.250;-1.118;2022-08-11T13:27:40;2.83;;;1.80;;
70667;SDS011;58242;51.250;-1.118;2022-08-11T13:30:06;2.53;;;1.42;;
70667;SDS011;58242;51.250;-1.118;2022-08-11T13:32:51;1.70;;;1.60;;
70667;SDS011;58242;51.250;-1.118;2022-08-11T13:35:17;1.58;;;1.48;;
70667;SDS011;58242;51.250;-1.118;2022-08-11T13:37:43;2.28;;;1.70;;
70667;SDS011;58242;51.250;-1.118;2022-08-11T13:40:10;1.75;;;1.50;;
70667;SDS011;58242;51.250;-1.118;2022-08-11T13:42:36;1.80;;;1.60;;
70667;SDS011;58242;51.250;-1.118;2022-08-11T13:45:04;2.78;;;1.90;;
70667;SDS011;58242;51.250;-1.118;2022-08-11T13:47:31;2.15;;;1.58;;
70667;SDS011;58242;51.250;-1.118;2022-08-11T13:49:57;1.95;;;1.83;;
70667;SDS011;58242;51.250;-1.118;2022-08-11T13:52:23;1.50;;;1.40;;
70667;SDS011;58242;51.250;-1.118;2022-08-11T13:54:50;1.80;;;1.60;;
70667;SDS011;58242;51.250;-1.118;2022-08-11T13:57:17;2.60;;;1.55;;
70667;SDS011;58242;51.250;-1.118;2022-08-11T13:59:45;1.50;;;1.40;;
70667;SDS011;58242;51.250;-1.118;2022-08-11T14:02:13;1.73;;;1.50;;
70667;SDS011;58242;51.250;-1.118;2022-08-11T14:07:07;1.88;;;1.70;;
70667;SDS011;58242;51.250;-1.118;2022-08-11T14:09:38;2.65;;;1.90;;
70667;SDS011;58242;51.250;-1.118;2022-08-11T14:12:08;2.08;;;1.70;;
70667;SDS011;58242;51.250;-1.118;2022-08-11T14:15:00;3.13;;;1.67;;
70667;SDS011;58242;51.250;-1.118;2022-08-11T14:17:31;2.30;;;2.10;;
70667;SDS011;58242;51.250;-1.118;2022-08-11T14:19:59;5.60;;;2.35;;
70667;SDS011;58242;51.250;-1.118;2022-08-11T14:22:28;2.13;;;2.00;;
70667;SDS011;58242;51.250;-1.118;2022-08-11T14:24:54;1.98;;;1.77;;
70667;SDS011;58242;51.250;-1.118;2022-08-11T14:27:22;2.88;;;2.25;;
70667;SDS011;58242;51.250;-1.118;2022-08-11T14:29:50;1.90;;;1.80;;
70667;SDS011;58242;51.250;-1.118;2022-08-11T14:32:18;2.20;;;2.10;;
70667;SDS011;58242;51.250;-1.118;2022-08-11T14:34:45;2.15;;;1.85;;
70667;SDS011;58242;51.250;-1.118;2022-08-11T14:37:13;2.10;;;1.95;;
70667;SDS011;58242;51.250;-1.118;2022-08-11T14:42:24;2.03;;;1.75;;
70667;SDS011;58242;51.250;-1.118;2022-08-11T14:45:09;4.10;;;1.90;;
70667;SDS011;58242;51.250;-1.118;2022-08-11T14:47:56;3.03;;;1.98;;
70667;SDS011;58242;51.250;-1.118;2022-08-11T14:50:28;3.22;;;2.28;;
70667;SDS011;58242;51.250;-1.118;2022-08-11T14:52:55;2.10;;;1.95;;
70667;SDS011;58242;51.250;-1.118;2022-08-11T14:55:25;2.45;;;2.25;;
70667;SDS011;58242;51.250;-1.118;2022-08-11T14:58:12;2.53;;;2.13;;
70667;SDS011;58242;51.250;-1.118;2022-08-11T15:00:41;3.58;;;2.25;;
70667;SDS011;58242;51.250;-1.118;2022-08-11T15:03:09;1.90;;;1.80;;
70667;SDS011;58242;51.250;-1.118;2022-08-11T15:05:44;1.88;;;1.75;;
70667;SDS011;58242;51.250;-1.118;2022-08-11T15:08:15;4.13;;;2.00;;
70667;SDS011;58242;51.250;-1.118;2022-08-11T15:10:42;2.15;;;2.03;;
70667;SDS011;58242;51.250;-1.118;2022-08-11T15:13:08;2.50;;;2.30;;
70667;SDS011;58242;51.250;-1.118;2022-08-11T15:15:34;3.75;;;2.35;;
70667;SDS011;58242;51.250;-1.118;2022-08-11T15:18:20;4.35;;;1.75;;
70667;SDS011;58242;51.250;-1.118;2022-08-11T15:20:48;2.10;;;1.85;;
70667;SDS011;58242;51.250;-1.118;2022-08-11T15:23:33;2.35;;;1.95;;
70667;SDS011;58242;51.250;-1.118;2022-08-11T15:26:18;2.25;;;2.13;;
70667;SDS011;58242;51.250;-1.118;2022-08-11T15:29:09;4.32;;;1.92;;
70667;SDS011;58242;51.250;-1.118;2022-08-11T15:31:56;1.95;;;1.85;;
70667;SDS011;58242;51.250;-1.118;2022-08-11T15:34:41;1.98;;;1.88;;
70667;SDS011;58242;51.250;-1.118;2022-08-11T15:37:37;3.58;;;2.15;;
70667;SDS011;58242;51.250;-1.118;2022-08-11T15:40:17;1.85;;;1.75;;
70667;SDS011;58242;51.250;-1.118;2022-08-11T15:43:13;3.53;;;2.33;;
70667;SDS011;58242;51.250;-1.118;2022-08-11T15:46:13;2.50;;;1.93;;
70667;SDS011;58242;51.250;-1.118;2022-08-11T15:48:46;2.28;;;1.90;;
70667;SDS011;58242;51.250;-1.118;2022-08-11T15:51:18;2.20;;;2.00;;
70667;SDS011;58242;51.250;-1.118;2022-08-11T15:53:57;1.98;;;1.88;;
70667;SDS011;58242;51.250;-1.118;2022-08-11T15:56:28;2.17;;;2.08;;
70667;SDS011;58242;51.250;-1.118;2022-08-11T15:58:56;2.72;;;2.50;;
70667;SDS011;58242;51.250;-1.118;2022-08-11T16:01:41;3.30;;;2.00;;
70667;SDS011;58242;51.250;-1.118;2022-08-11T16:04:28;2.28;;;2.17;;
70667;SDS011;58242;51.250;-1.118;2022-08-11T16:09:28;2.20;;;2.10;;
70667;SDS011;58242;51.250;-1.118;2022-08-11T16:11:58;2.00;;;1.90;;
70667;SDS011;58242;51.250;-1.118;2022-08-11T16:14:27;2.08;;;1.90;;
70667;SDS011;58242;51.250;-1.118;2022-08-11T16:17:13;2.17;;;1.80;;
70667;SDS011;58242;51.250;-1.118;2022-08-11T16:19:42;4.10;;;1.95;;
70667;SDS011;58242;51.250;-1.118;2022-08-11T16:22:10;1.90;;;1.80;;
70667;SDS011;58242;51.250;-1.118;2022-08-11T16:24:40;1.50;;;1.50;;
70667;SDS011;58242;51.250;-1.118;2022-08-11T16:27:09;2.03;;;1.90;;
70667;SDS011;58242;51.250;-1.118;2022-08-11T16:29:39;2.33;;;2.17;;
70667;SDS011;58242;51.250;-1.118;2022-08-11T16:32:09;3.92;;;2.30;;
70667;SDS011;58242;51.250;-1.118;2022-08-11T16:34:44;2.50;;;2.30;;
70667;SDS011;58242;51.250;-1.118;2022-08-11T16:37:33;2.45;;;2.35;;
70667;SDS011;58242;51.250;-1.118;2022-08-11T16:40:18;2.17;;;1.98;;
70667;SDS011;58242;51.250;-1.118;2022-08-11T16:42:45;3.13;;;2.20;;
70667;SDS011;58242;51.250;-1.118;2022-08-11T16:45:30;1.80;;;1.75;;
70667;SDS011;58242;51.250;-1.118;2022-08-11T16:48:16;2.42;;;2.30;;
70667;SDS011;58242;51.250;-1.118;2022-08-11T16:50:43;2.60;;;2.40;;
70667;SDS011;58242;51.250;-1.118;2022-08-11T16:53:09;2.47;;;2.28;;
70667;SDS011;58242;51.250;-1.118;2022-08-11T16:55:35;3.28;;;2.53;;
70667;SDS011;58242;51.250;-1.118;2022-08-11T16:58:01;2.20;;;2.10;;
70667;SDS011;58242;51.250;-1.118;2022-08-11T17:00:47;2.42;;;1.90;;
70667;SDS011;58242;51.250;-1.118;2022-08-11T17:03:14;3.57;;;2.40;;
70667;SDS011;58242;51.250;-1.118;2022-08-11T17:06:01;1.90;;;1.80;;
70667;SDS011;58242;51.250;-1.118;2022-08-11T17:08:49;2.38;;;2.17;;
70667;SDS011;58242;51.250;-1.118;2022-08-11T17:11:37;3.03;;;2.25;;
70667;SDS011;58242;51.250;-1.118;2022-08-11T17:14:26;2.30;;;2.20;;
70667;SDS011;58242;51.250;-1.118;2022-08-11T17:17:05;2.38;;;2.17;;
70667;SDS011;58242;51.250;-1.118;2022-08-11T17:19:36;2.53;;;2.33;;
70667;SDS011;58242;51.250;-1.118;2022-08-11T17:22:04;2.42;;;2.25;;
70667;SDS011;58242;51.250;-1.118;2022-08-11T17:24:49;2.35;;;2.15;;
70667;SDS011;58242;51.250;-1.118;2022-08-11T17:27:17;2.72;;;2.53;;
70667;SDS011;58242;51.250;-1.118;2022-08-11T17:29:46;3.70;;;1.98;;
70667;SDS011;58242;51.250;-1.118;2022-08-11T17:32:16;3.05;;;2.75;;
70667;SDS011;58242;51.250;-1.118;2022-08-11T17:35:04;2.10;;;2.00;;
70667;SDS011;58242;51.250;-1.118;2022-08-11T17:37:52;2.75;;;2.55;;
70667;SDS011;58242;51.250;-1.118;2022-08-11T17:40:20;2.85;;;2.58;;
70667;SDS011;58242;51.250;-1.118;2022-08-11T17:42:51;2.65;;;2.50;;
70667;SDS011;58242;51.250;-1.118;2022-08-11T17:45:37;6.55;;;2.95;;
70667;SDS011;58242;51.250;-1.118;2022-08-11T17:48:28;3.75;;;2.90;;
70667;SDS011;58242;51.250;-1.118;2022-08-11T17:50:58;3.28;;;2.85;;
70667;SDS011;58242;51.250;-1.118;2022-08-11T17:53:30;2.92;;;2.65;;
70667;SDS011;58242;51.250;-1.118;2022-08-11T17:56:20;2.83;;;2.65;;
70667;SDS011;58242;51.250;-1.118;2022-08-11T17:59:06;3.25;;;3.00;;
70667;SDS011;58242;51.250;-1.118;2022-08-11T18:01:51;2.72;;;2.53;;
70667;SDS011;58242;51.250;-1.118;2022-08-11T18:04:20;3.47;;;2.83;;
70667;SDS011;58242;51.250;-1.118;2022-08-11T18:06:46;3.03;;;2.80;;
70667;SDS011;58242;51.250;-1.118;2022-08-11T18:09:13;2.42;;;2.33;;
70667;SDS011;58242;51.250;-1.118;2022-08-11T18:12:00;2.97;;;2.83;;
70667;SDS011;58242;51.250;-1.118;2022-08-11T18:14:48;2.92;;;2.72;;
70667;SDS011;58242;51.250;-1.118;2022-08-11T18:17:34;2.25;;;2.00;;
70667;SDS011;58242;51.250;-1.118;2022-08-11T18:20:19;3.03;;;2.90;;
70667;SDS011;58242;51.250;-1.118;2022-08-11T18:23:06;4.28;;;3.30;;
70667;SDS011;58242;51.250;-1.118;2022-08-11T18:25:52;2.75;;;2.55;;
70667;SDS011;58242;51.250;-1.118;2022-08-11T18:28:43;4.57;;;2.90;;
70667;SDS011;58242;51.250;-1.118;2022-08-11T18:31:34;2.72;;;2.53;;
70667;SDS011;58242;51.250;-1.118;2022-08-11T18:34:25;2.78;;;2.60;;
70667;SDS011;58242;51.250;-1.118;2022-08-11T18:37:14;2.92;;;2.72;;
70667;SDS011;58242;51.250;-1.118;2022-08-11T18:40:03;2.85;;;2.60;;
70667;SDS011;58242;51.250;-1.118;2022-08-11T18:42:50;3.08;;;2.83;;
70667;SDS011;58242;51.250;-1.118;2022-08-11T18:45:38;2.60;;;2.50;;
70667;SDS011;58242;51.250;-1.118;2022-08-11T18:48:24;2.45;;;2.35;;
70667;SDS011;58242;51.250;-1.118;2022-08-11T18:51:10;2.50;;;2.40;;
70667;SDS011;58242;51.250;-1.118;2022-08-11T18:53:58;4.13;;;2.92;;
70667;SDS011;58242;51.250;-1.118;2022-08-11T18:56:45;2.10;;;1.90;;
70667;SDS011;58242;51.250;-1.118;2022-08-11T18:59:31;2.55;;;2.38;;
70667;SDS011;58242;51.250;-1.118;2022-08-11T19:02:19;2.97;;;2.30;;
70667;SDS011;58242;51.250;-1.118;2022-08-11T19:05:06;2.35;;;2.15;;
70667;SDS011;58242;51.250;-1.118;2022-08-11T19:07:52;2.85;;;2.58;;
70667;SDS011;58242;51.250;-1.118;2022-08-11T19:10:40;2.65;;;2.50;;
70667;SDS011;58242;51.250;-1.118;2022-08-11T19:13:26;2.78;;;2.58;;
70667;SDS011;58242;51.250;-1.118;2022-08-11T19:16:13;2.92;;;2.72;;
70667;SDS011;58242;51.250;-1.118;2022-08-11T19:18:58;2.10;;;2.00;;
70667;SDS011;58242;51.250;-1.118;2022-08-11T19:21:44;2.80;;;2.42;;
70667;SDS011;58242;51.250;-1.118;2022-08-11T19:24:29;1.95;;;1.85;;
70667;SDS011;58242;51.250;-1.118;2022-08-11T19:27:14;2.50;;;2.30;;
70667;SDS011;58242;51.250;-1.118;2022-08-11T19:30:00;2.00;;;1.90;;
70667;SDS011;58242;51.250;-1.118;2022-08-11T19:32:44;2.13;;;2.03;;
70667;SDS011;58242;51.250;-1.118;2022-08-11T19:35:29;1.92;;;1.83;;
70667;SDS011;58242;51.250;-1.118;2022-08-11T19:38:13;2.20;;;2.10;;
70667;SDS011;58242;51.250;-1.118;2022-08-11T19:40:59;1.90;;;1.80;;
70667;SDS011;58242;51.250;-1.118;2022-08-11T19:43:43;2.33;;;2.15;;
70667;SDS011;58242;51.250;-1.118;2022-08-11T19:46:29;2.42;;;2.33;;
70667;SDS011;58242;51.250;-1.118;2022-08-11T19:49:14;2.45;;;2.25;;